Time;durP1;ratioP1;P1;durP2;ratioP2;P2;SDS_P1;SDS_P2;PMS_P1;PMS_P2;Temp;Humidity;BMP_temperature;BMP_pressure;BME280_temperature;BME280_humidity;BME280_pressure;Samples;Min_cycle;Max_cycle;Signal;HPM_P1;HPM_P2
2022/10/22 00:01:33;;;;;;;6.78;2.40;;;;;;;26.12;100.00;96649.88;6238417;23;20073;-96
2022/10/22 00:03:59;;;;;;;7.07;2.35;;;;;;;26.53;100.00;96646.44;6239272;23;20004;-96
2022/10/22 00:06:25;;;;;;;7.85;2.33;;;;;;;25.82;100.00;96649.44;6239542;23;20019;-95
2022/10/22 00:08:51;;;;;;;6.80;1.95;;;;;;;27.15;100.00;96655.78;6240181;23;20081;-95
2022/10/22 00:11:18;;;;;;;6.50;1.77;;;;;;;26.47;100.00;96649.75;6238928;23;20016;-94
2022/10/22 00:13:45;;;;;;;9.05;1.83;;;;;;;27.01;100.00;96657.28;6237741;23;20031;-95
2022/10/22 00:16:10;;;;;;;9.82;1.60;;;;;;;25.68;100.00;96655.41;6240158;23;20016;-96
2022/10/22 00:18:36;;;;;;;7.88;1.95;;;;;;;25.56;100.00;96666.34;6240422;23;20015;-95
2022/10/22 00:21:02;;;;;;;11.68;1.73;;;;;;;25.22;100.00;96667.13;6240487;23;21087;-94
2022/10/22 00:23:27;;;;;;;12.05;1.90;;;;;;;24.51;100.00;96682.22;6237707;23;20012;-95
2022/10/22 00:25:53;;;;;;;9.02;2.38;;;;;;;26.03;100.00;96675.72;6237793;23;20062;-94
2022/10/22 00:28:19;;;;;;;9.05;1.80;;;;;;;25.53;100.00;96680.00;6239117;23;20015;-95
2022/10/22 00:30:45;;;;;;;10.68;2.08;;;;;;;25.82;100.00;96684.16;6240139;23;20031;-95
2022/10/22 00:33:11;;;;;;;9.35;1.58;;;;;;;25.41;100.00;96691.13;6238114;23;20004;-94
2022/10/22 00:35:36;;;;;;;9.85;1.98;;;;;;;25.47;100.00;96677.97;6249577;23;20012;-94
2022/10/22 00:38:02;;;;;;;11.23;1.95;;;;;;;25.82;100.00;96686.00;6248230;23;20307;-93
2022/10/22 00:40:27;;;;;;;12.05;2.05;;;;;;;26.48;100.00;96691.53;6241973;23;20016;-95
2022/10/22 00:42:53;;;;;;;8.88;2.10;;;;;;;26.48;100.00;96707.56;6245667;23;20042;-93
2022/10/22 00:45:24;;;;;;;9.35;2.00;;;;;;;25.77;100.00;96698.97;6243804;23;20444;-94
2022/10/22 00:48:11;;;;;;;9.15;2.05;;;;;;;25.54;100.00;96694.19;6245027;23;20083;-96
2022/10/22 00:50:44;;;;;;;12.13;2.08;;;;;;;25.52;100.00;96698.84;6246229;23;20011;-96
2022/10/22 00:53:19;;;;;;;9.77;2.10;;;;;;;26.10;100.00;96697.28;6246866;23;20000;-96
2022/10/22 00:55:49;;;;;;;9.30;1.90;;;;;;;26.82;100.00;96693.25;6247020;23;20047;-96
2022/10/22 00:58:17;;;;;;;13.43;1.65;;;;;;;25.81;100.00;96703.00;6245649;23;20442;-96
2022/10/22 01:00:43;;;;;;;11.23;2.33;;;;;;;24.84;100.00;96717.22;6246065;23;20038;-96
2022/10/22 01:03:09;;;;;;;7.28;1.65;;;;;;;25.78;100.00;96727.34;6245639;23;20027;-96
2022/10/22 01:05:59;;;;;;;8.15;1.80;;;;;;;25.85;100.00;96728.38;6245201;23;20011;-96
2022/10/22 01:08:46;;;;;;;10.93;2.08;;;;;;;25.52;100.00;96723.69;6234420;23;20014;-95
2022/10/22 01:11:51;;;;;;;11.32;1.75;;;;;;;25.94;100.00;96738.09;6246029;23;20038;-95
2022/10/22 01:14:36;;;;;;;11.73;1.90;;;;;;;26.55;100.00;96737.97;6246053;23;20028;-96
2022/10/22 01:17:08;;;;;;;10.45;1.98;;;;;;;26.03;100.00;96739.00;6245346;23;20559;-96
2022/10/22 01:19:49;;;;;;;7.90;1.65;;;;;;;25.12;100.00;96738.44;6246455;23;20008;-96
2022/10/22 01:22:41;;;;;;;6.93;1.77;;;;;;;25.36;100.00;96742.28;6246473;23;20011;-95
2022/10/22 01:25:07;;;;;;;10.65;2.50;;;;;;;26.55;100.00;96754.84;6212047;23;20043;-96
2022/10/22 01:27:57;;;;;;;10.43;1.95;;;;;;;26.60;100.00;96750.84;6245925;23;20054;-96
2022/10/22 01:30:25;;;;;;;12.95;2.33;;;;;;;26.07;100.00;96756.38;6246417;23;20016;-96
2022/10/22 01:33:00;;;;;;;11.73;2.13;;;;;;;25.85;100.00;96768.44;6249237;23;20099;-96
2022/10/22 01:35:36;;;;;;;6.85;1.95;;;;;;;26.31;100.00;96760.97;6245239;23;19996;-96
2022/10/22 01:38:25;;;;;;;9.25;2.22;;;;;;;25.42;100.00;96768.34;6247910;23;20051;-96
2022/10/22 01:40:51;;;;;;;7.13;1.80;;;;;;;26.39;100.00;96768.19;6245994;23;20000;-95
2022/10/22 01:43:17;;;;;;;8.50;2.40;;;;;;;26.82;100.00;96777.00;6245415;23;20043;-95
2022/10/22 01:45:53;;;;;;;11.40;2.15;;;;;;;25.79;100.00;96790.41;6245305;23;20035;-95
2022/10/22 01:48:56;;;;;;;7.72;2.33;;;;;;;26.03;100.00;96785.25;6245844;23;20004;-96
2022/10/22 01:51:34;;;;;;;10.02;2.17;;;;;;;25.79;100.00;96777.06;6244311;23;20058;-96
2022/10/22 01:54:21;;;;;;;8.13;1.77;;;;;;;25.95;100.00;96792.34;6245038;23;20081;-96
2022/10/22 01:56:53;;;;;;;7.47;2.28;;;;;;;26.66;100.00;96795.66;6245867;23;20012;-96
2022/10/22 01:59:18;;;;;;;11.13;2.50;;;;;;;25.82;100.00;96798.13;6243512;23;20039;-95
2022/10/22 02:01:43;;;;;;;9.10;2.60;;;;;;;26.18;100.00;96797.97;6222602;22;20032;-94
2022/10/22 02:04:27;;;;;;;8.07;2.20;;;;;;;26.46;100.00;96795.06;6205945;23;20011;-95
2022/10/22 02:06:58;;;;;;;7.35;1.83;;;;;;;27.19;100.00;96805.09;6235362;23;20004;-94
2022/10/22 02:09:26;;;;;;;7.43;1.88;;;;;;;27.41;100.00;96805.47;6235525;23;20016;-94
2022/10/22 02:11:53;;;;;;;9.07;1.73;;;;;;;26.72;100.00;96811.06;6237160;23;20078;-93
2022/10/22 02:14:20;;;;;;;8.77;2.13;;;;;;;27.47;100.00;96810.16;6237987;23;20042;-94
2022/10/22 02:16:47;;;;;;;9.30;1.77;;;;;;;25.20;100.00;96826.50;6212210;23;20093;-95
2022/10/22 02:19:24;;;;;;;9.93;2.20;;;;;;;25.87;100.00;96823.38;6211800;23;20400;-95
2022/10/22 02:21:50;;;;;;;11.48;2.10;;;;;;;27.08;100.00;96824.16;6209955;23;20008;-95
2022/10/22 02:24:16;;;;;;;6.97;1.58;;;;;;;25.82;100.00;96835.50;6210588;23;20008;-95
2022/10/22 02:27:00;;;;;;;7.57;1.67;;;;;;;26.29;100.00;96820.91;6211501;23;20008;-95
2022/10/22 02:29:28;;;;;;;;;;;;;;;25.75;100.00;96819.28;6238300;23;20351;-94
2022/10/22 02:31:55;;;;;;;6.63;1.40;;;;;;;26.37;100.00;96818.28;6212002;23;19930;-94
2022/10/22 02:34:25;;;;;;;7.78;1.73;;;;;;;25.93;100.00;96813.88;6211386;23;20014;-95
2022/10/22 02:36:52;;;;;;;7.68;1.70;;;;;;;25.52;100.00;96824.28;6213840;23;20016;-95
2022/10/22 02:39:19;;;;;;;8.85;1.67;;;;;;;26.18;100.00;96825.56;6214183;23;20020;-94
2022/10/22 02:41:45;;;;;;;10.18;2.55;;;;;;;26.18;100.00;96824.69;6212294;23;20007;-94
2022/10/22 02:44:10;;;;;;;8.23;1.60;;;;;;;25.43;100.00;96831.41;6210916;23;20000;-95
2022/10/22 02:46:38;;;;;;;10.05;1.90;;;;;;;26.30;100.00;96828.78;6238512;23;20004;-94
2022/10/22 02:49:04;;;;;;;10.38;2.28;;;;;;;26.53;100.00;96823.69;6239092;23;20695;-94
2022/10/22 02:51:29;;;;;;;10.57;2.58;;;;;;;26.11;100.00;96837.88;6212962;23;20000;-96
2022/10/22 02:53:55;;;;;;;13.02;2.30;;;;;;;25.71;100.00;96840.09;6212150;23;20343;-93
2022/10/22 02:56:20;;;;;;;7.15;1.50;;;;;;;24.67;100.00;96851.31;6211875;23;20382;-96
2022/10/22 02:58:46;;;;;;;10.90;1.92;;;;;;;25.86;100.00;96858.22;6213158;23;20003;-94
2022/10/22 03:01:11;;;;;;;8.32;1.55;;;;;;;25.04;100.00;96850.38;6211715;23;20016;-94
2022/10/22 03:03:37;;;;;;;8.55;1.75;;;;;;;24.51;100.00;96867.94;6186810;23;20429;-95
2022/10/22 03:06:03;;;;;;;7.25;1.50;;;;;;;25.16;100.00;96856.31;6211967;23;20012;-95
2022/10/22 03:08:28;;;;;;;8.10;1.48;;;;;;;24.77;100.00;96865.41;6211934;23;20060;-93
2022/10/22 03:10:54;;;;;;;9.00;1.42;;;;;;;24.50;100.00;96855.59;6212042;23;20434;-95
2022/10/22 03:13:19;;;;;;;6.28;1.20;;;;;;;24.13;100.00;96867.91;6214925;23;20482;-93
2022/10/22 03:15:47;;;;;;;9.82;1.48;;;;;;;24.68;100.00;96863.66;6214320;23;20003;-95
2022/10/22 03:18:13;;;;;;;6.07;1.30;;;;;;;24.77;100.00;96867.25;6213703;23;20004;-95
2022/10/22 03:20:39;;;;;;;5.95;1.30;;;;;;;25.04;100.00;96869.88;6215245;23;20020;-93
2022/10/22 03:23:05;;;;;;;6.53;1.20;;;;;;;24.70;100.00;96861.66;6213132;23;20067;-95
2022/10/22 03:25:33;;;;;;;7.28;1.30;;;;;;;24.44;100.00;96869.47;6214282;23;20023;-95
2022/10/22 03:28:06;;;;;;;9.45;1.90;;;;;;;23.52;100.00;96864.69;6212550;23;20096;-94
2022/10/22 03:30:31;;;;;;;8.65;1.52;;;;;;;24.30;100.00;96884.13;6213711;23;20035;-93
2022/10/22 03:32:57;;;;;;;8.65;1.60;;;;;;;23.39;100.00;96896.03;6212597;23;20011;-94
2022/10/22 03:35:23;;;;;;;9.05;1.52;;;;;;;23.65;100.00;96898.97;6213623;23;20020;-96
2022/10/22 03:37:49;;;;;;;8.80;1.77;;;;;;;23.60;100.00;96906.53;6211230;23;20004;-93
2022/10/22 03:40:14;;;;;;;10.85;2.17;;;;;;;25.15;100.00;96899.97;6214387;23;20016;-94
2022/10/22 03:42:41;;;;;;;8.80;2.13;;;;;;;25.17;100.00;96906.00;6213132;23;20680;-94
2022/10/22 03:45:07;;;;;;;10.63;2.55;;;;;;;23.82;100.00;96929.34;6213890;23;20614;-95
2022/10/22 03:47:33;;;;;;;8.20;2.10;;;;;;;24.25;100.00;96915.72;6213504;23;20722;-94
2022/10/22 03:49:58;;;;;;;11.27;2.53;;;;;;;24.20;100.00;96916.13;6212761;23;20004;-95
2022/10/22 03:52:24;;;;;;;10.55;2.75;;;;;;;24.19;100.00;96922.47;6214328;23;20012;-95
2022/10/22 03:54:49;;;;;;;8.57;2.00;;;;;;;23.61;100.00;96924.19;6214517;23;20004;-94
2022/10/22 03:57:15;;;;;;;7.22;2.25;;;;;;;24.69;100.00;96931.94;6213903;23;20097;-94
2022/10/22 03:59:43;;;;;;;8.15;1.80;;;;;;;23.39;100.00;96943.94;6216013;23;20004;-96
2022/10/22 04:02:11;;;;;;;10.10;1.85;;;;;;;23.92;100.00;96941.84;6214443;23;20024;-95
2022/10/22 04:04:37;;;;;;;6.13;1.75;;;;;;;23.33;100.00;96941.84;6214941;23;20004;-93
2022/10/22 04:07:04;;;;;;;6.00;1.58;;;;;;;23.68;100.00;96938.59;6241590;23;20008;-95
2022/10/22 04:09:31;;;;;;;5.85;1.15;;;;;;;23.66;100.00;96942.38;6215858;23;20070;-94
2022/10/22 04:11:57;;;;;;;4.50;1.08;;;;;;;23.47;100.00;96949.41;6215636;23;20036;-94
2022/10/22 04:14:22;;;;;;;5.25;1.05;;;;;;;23.25;100.00;96960.31;6216874;23;20015;-95
2022/10/22 04:16:48;;;;;;;6.85;0.90;;;;;;;22.79;100.00;96955.41;6219286;23;20011;-94
2022/10/22 04:19:14;;;;;;;6.47;1.10;;;;;;;23.25;100.00;96965.63;6219138;23;20378;-96
2022/10/22 04:21:40;;;;;;;6.53;1.00;;;;;;;23.63;100.00;96956.84;6216407;23;20133;-96
2022/10/22 04:24:05;;;;;;;7.72;1.23;;;;;;;23.35;100.00;96966.47;6214121;23;20040;-94
2022/10/22 04:26:31;;;;;;;7.88;1.38;;;;;;;23.76;100.00;96985.81;6214101;23;20040;-93
2022/10/22 04:28:56;;;;;;;7.78;1.33;;;;;;;23.11;100.00;96983.59;6213025;23;20434;-93
2022/10/22 04:31:24;;;;;;;4.13;0.95;;;;;;;23.10;100.00;96983.75;6214481;23;20054;-93
2022/10/22 04:33:58;;;;;;;5.75;1.10;;;;;;;23.10;100.00;96984.56;6214784;23;20022;-93
2022/10/22 04:36:24;;;;;;;9.23;1.05;;;;;;;23.04;100.00;96992.28;6241611;23;20008;-93
2022/10/22 04:38:58;;;;;;;7.78;1.20;;;;;;;23.39;100.00;96988.31;6214244;23;20011;-94
2022/10/22 04:41:27;;;;;;;9.30;1.23;;;;;;;23.47;100.00;96993.81;6215460;23;20020;-96
2022/10/22 04:43:54;;;;;;;8.38;1.20;;;;;;;22.90;100.00;96996.97;6215421;23;20043;-94
2022/10/22 04:46:19;;;;;;;9.52;1.50;;;;;;;23.75;100.00;97000.09;6214458;23;20016;-96
2022/10/22 04:48:46;;;;;;;9.10;1.10;;;;;;;23.43;100.00;97008.34;6214258;23;20350;-95
2022/10/22 04:51:15;;;;;;;9.73;1.17;;;;;;;22.93;100.00;97009.16;6213927;23;20000;-93
2022/10/22 04:53:41;;;;;;;9.38;1.27;;;;;;;22.79;100.00;96997.91;6212891;23;20008;-95
2022/10/22 04:56:09;;;;;;;7.70;1.25;;;;;;;22.52;100.00;97001.16;6214598;23;20012;-95
2022/10/22 04:58:36;;;;;;;10.32;1.40;;;;;;;22.46;100.00;96993.72;6213468;23;20075;-96
2022/10/22 05:01:17;;;;;;;5.45;1.13;;;;;;;22.31;100.00;97004.66;6212645;23;20040;-95
2022/10/22 05:03:50;;;;;;;8.43;1.17;;;;;;;21.94;100.00;97023.69;6213516;23;20004;-95
2022/10/22 05:06:16;;;;;;;13.30;1.70;;;;;;;22.66;100.00;97008.78;6212705;23;20067;-94
2022/10/22 05:08:42;;;;;;;9.70;1.38;;;;;;;23.00;100.00;97019.13;6212615;23;20434;-95
2022/10/22 05:11:17;;;;;;;7.20;1.10;;;;;;;22.27;100.00;97024.47;6212532;23;20133;-94
2022/10/22 05:13:46;;;;;;;8.25;1.58;;;;;;;22.52;100.00;97026.88;6214469;23;20038;-94
2022/10/22 05:16:12;;;;;;;7.82;1.20;;;;;;;22.71;100.00;97013.69;6213018;23;20342;-95
2022/10/22 05:18:40;;;;;;;8.43;1.08;;;;;;;22.54;100.00;97014.31;6212915;23;20000;-96
2022/10/22 05:21:17;;;;;;;6.88;0.93;;;;;;;21.69;100.00;97019.56;6213576;23;20004;-96
2022/10/22 05:23:44;;;;;;;9.23;1.50;;;;;;;22.53;100.00;97023.25;6212688;23;20004;-96
2022/10/22 05:26:11;;;;;;;8.35;1.52;;;;;;;22.69;100.00;97034.25;6214150;23;20011;-94
2022/10/22 05:28:37;;;;;;;7.70;1.13;;;;;;;23.66;100.00;97031.06;6214715;23;20071;-95
2022/10/22 05:31:04;;;;;;;10.80;1.67;;;;;;;22.14;100.00;97024.69;6217247;23;20016;-95
2022/10/22 05:33:31;;;;;;;9.80;1.80;;;;;;;23.31;100.00;97040.41;6214890;23;20009;-95
2022/10/22 05:35:57;;;;;;;9.48;1.50;;;;;;;22.31;100.00;97046.28;6215741;23;20012;-96
2022/10/22 05:38:22;;;;;;;10.98;1.67;;;;;;;22.39;100.00;97051.00;6218264;23;20449;-95
2022/10/22 05:40:57;;;;;;;15.98;2.08;;;;;;;23.07;100.00;97051.31;6215260;23;20714;-94
2022/10/22 05:43:22;;;;;;;10.25;1.48;;;;;;;23.42;100.00;97063.34;6215200;23;20012;-96
2022/10/22 05:45:48;;;;;;;11.18;1.48;;;;;;;23.18;100.00;97069.88;6216005;23;20365;-95
2022/10/22 05:48:13;;;;;;;11.43;1.52;;;;;;;23.22;100.00;97070.44;6214509;23;20023;-96
2022/10/22 05:50:39;;;;;;;13.95;1.50;;;;;;;23.51;100.00;97070.53;6243568;23;20435;-96
2022/10/22 05:53:05;;;;;;;11.25;1.40;;;;;;;23.22;100.00;97081.09;6216947;23;20008;-96
2022/10/22 05:55:35;;;;;;;11.30;1.73;;;;;;;25.06;100.00;97080.41;6214357;23;20012;-96
2022/10/22 05:58:02;;;;;;;9.07;1.25;;;;;;;24.37;100.00;97091.22;6191897;23;20350;-94
2022/10/22 06:00:28;;;;;;;14.23;2.13;;;;;;;23.37;100.00;97081.56;6215799;23;20012;-95
2022/10/22 06:02:53;;;;;;;10.20;1.77;;;;;;;23.95;100.00;97093.31;6243350;23;20000;-95
2022/10/22 06:05:23;;;;;;;12.30;2.15;;;;;;;23.23;100.00;97100.53;6216723;23;20572;-96
2022/10/22 06:07:48;;;;;;;11.48;1.73;;;;;;;23.17;100.00;97104.56;6242802;23;20051;-96
2022/10/22 06:10:17;;;;;;;12.02;2.00;;;;;;;23.34;100.00;97113.78;6216710;23;20016;-96
2022/10/22 06:12:43;;;;;;;15.02;1.60;;;;;;;23.62;100.00;97109.50;6219480;23;20042;-95
2022/10/22 06:15:17;;;;;;;14.13;1.67;;;;;;;24.31;100.00;97114.91;6221007;23;20081;-94
2022/10/22 06:17:46;;;;;;;11.80;1.67;;;;;;;25.47;97.01;97098.78;6220472;23;20050;-96
2022/10/22 06:20:13;;;;;;;14.93;1.70;;;;;;;24.03;100.00;97120.09;6218036;23;20008;-96
2022/10/22 06:22:39;;;;;;;12.18;1.75;;;;;;;24.76;100.00;97111.69;6220371;23;20008;-95
2022/10/22 06:25:07;;;;;;;12.02;1.65;;;;;;;25.30;98.07;97108.41;6224782;23;20057;-95
2022/10/22 06:27:33;;;;;;;12.93;1.83;;;;;;;23.96;100.00;97117.13;6222338;23;20011;-96
2022/10/22 06:29:59;;;;;;;9.90;1.42;;;;;;;24.20;100.00;97123.88;6220464;23;20446;-95
2022/10/22 06:32:24;;;;;;;12.98;1.90;;;;;;;23.76;100.00;97123.38;6219493;23;20016;-95
2022/10/22 06:34:50;;;;;;;11.43;1.65;;;;;;;23.47;100.00;97137.47;6220686;23;20318;-94
2022/10/22 06:37:16;;;;;;;10.52;1.63;;;;;;;24.31;100.00;97139.72;6218516;23;20008;-96
2022/10/22 06:39:42;;;;;;;15.35;1.98;;;;;;;24.76;98.79;97151.66;6218630;23;20035;-95
2022/10/22 06:42:12;;;;;;;11.82;1.95;;;;;;;25.42;96.80;97146.47;6221279;23;20004;-96
2022/10/22 06:44:41;;;;;;;12.30;1.98;;;;;;;24.36;98.16;97153.47;6223657;23;20000;-96
2022/10/22 06:47:30;;;;;;;13.13;1.63;;;;;;;26.06;92.77;97171.44;6227835;23;20016;-96
2022/10/22 06:49:55;;;;;;;12.10;1.50;;;;;;;26.65;93.76;97171.81;6228315;23;20001;-96
2022/10/22 06:52:21;;;;;;;10.63;1.33;;;;;;;25.56;92.59;97180.66;6223829;23;19996;-96
2022/10/22 06:54:50;;;;;;;11.98;1.70;;;;;;;25.71;93.32;97173.00;6227481;23;20035;-96
2022/10/22 06:57:21;;;;;;;10.27;1.55;;;;;;;26.95;90.51;97187.63;6231325;23;20012;-96
2022/10/22 06:59:54;;;;;;;11.98;1.92;;;;;;;26.79;89.32;97185.66;6231994;23;20004;-96
2022/10/22 07:02:23;;;;;;;11.57;1.50;;;;;;;24.95;94.87;97214.78;6228440;23;20035;-96
2022/10/22 07:04:49;;;;;;;7.85;1.52;;;;;;;25.55;91.85;97201.19;6261091;22;19995;-94
2022/10/22 07:07:14;;;;;;;12.07;1.80;;;;;;;25.20;89.82;97210.66;6247290;22;20012;-95
2022/10/22 07:09:44;;;;;;;11.80;1.70;;;;;;;26.04;91.55;97211.66;6245635;22;20929;-94
2022/10/22 07:12:11;;;;;;;15.00;1.60;;;;;;;26.30;87.63;97212.75;6246534;22;20030;-96
2022/10/22 07:14:37;;;;;;;10.30;1.75;;;;;;;29.08;79.56;97202.81;6247421;22;20011;-95
2022/10/22 07:17:03;;;;;;;12.13;1.67;;;;;;;26.94;85.41;97220.72;6249347;22;20008;-95
2022/10/22 07:19:30;;;;;;;8.60;1.20;;;;;;;26.39;88.09;97228.72;6246370;22;20090;-94
2022/10/22 07:21:55;;;;;;;15.45;2.00;;;;;;;27.24;86.71;97220.28;6247293;22;20011;-96
2022/10/22 07:24:22;;;;;;;15.27;1.70;;;;;;;27.70;84.44;97227.28;6253645;22;20003;-95
2022/10/22 07:26:47;;;;;;;12.52;1.98;;;;;;;28.98;81.15;97237.00;6247606;22;20014;-96
2022/10/22 07:29:14;;;;;;;15.82;2.00;;;;;;;27.54;83.05;97230.69;6244982;22;20011;-92
2022/10/22 07:31:41;;;;;;;10.20;1.73;;;;;;;26.92;86.91;97237.75;6273824;22;20000;-94
2022/10/22 07:34:06;;;;;;;13.57;1.90;;;;;;;28.24;82.36;97235.88;6246252;22;20046;-96
2022/10/22 07:36:32;;;;;;;10.52;1.75;;;;;;;28.21;81.84;97225.50;6247560;22;20007;-95
2022/10/22 07:38:59;;;;;;;16.05;1.75;;;;;;;28.10;79.41;97239.16;6247328;22;20124;-94
2022/10/22 07:41:26;;;;;;;12.75;1.95;;;;;;;29.16;78.90;97251.13;6248011;22;20004;-94
2022/10/22 07:43:51;;;;;;;17.50;2.00;;;;;;;29.00;79.12;97262.69;6248717;22;20034;-95
2022/10/22 07:46:17;;;;;;;10.30;1.90;;;;;;;28.49;75.80;97275.31;6249251;22;20656;-95
2022/10/22 07:48:46;;;;;;;12.23;1.70;;;;;;;27.95;81.32;97268.41;6247600;22;20066;-95
2022/10/22 07:51:12;;;;;;;11.40;2.10;;;;;;;25.80;90.03;97275.41;6247342;22;20020;-96
2022/10/22 07:53:38;;;;;;;16.23;1.92;;;;;;;27.57;83.45;97270.53;6248260;22;20044;-95
2022/10/22 07:56:04;;;;;;;13.38;2.35;;;;;;;26.26;90.99;97287.03;6247904;22;20016;-94
2022/10/22 07:58:29;;;;;;;14.73;1.85;;;;;;;26.05;86.71;97281.94;6249564;22;20004;-95
2022/10/22 08:00:59;;;;;;;16.58;1.85;;;;;;;24.57;91.60;97282.25;6248998;22;20038;-96
2022/10/22 08:03:25;;;;;;;12.85;1.40;;;;;;;24.99;96.66;97269.50;6247767;22;20437;-95
2022/10/22 08:05:51;;;;;;;9.77;1.60;;;;;;;25.00;93.13;97281.88;6247623;22;20532;-95
2022/10/22 08:08:17;;;;;;;17.02;1.88;;;;;;;24.56;93.36;97283.22;6274752;22;20023;-96
2022/10/22 08:10:43;;;;;;;11.80;2.25;;;;;;;24.71;95.42;97288.03;6273052;22;20429;-94
2022/10/22 08:13:09;;;;;;;13.45;1.70;;;;;;;25.93;91.40;97293.78;6244232;22;20003;-94
2022/10/22 08:15:35;;;;;;;11.10;2.00;;;;;;;26.77;89.36;97284.78;6246922;22;20015;-93
2022/10/22 08:18:04;;;;;;;12.55;1.63;;;;;;;25.13;93.91;97286.09;6247937;22;20081;-95
2022/10/22 08:20:33;;;;;;;12.02;1.85;;;;;;;25.13;93.11;97294.09;6247220;22;20007;-96
2022/10/22 08:22:58;;;;;;;12.27;1.85;;;;;;;23.34;98.70;97289.34;6275498;22;19999;-93
2022/10/22 08:25:24;;;;;;;14.77;1.52;;;;;;;24.06;97.35;97284.94;6273655;22;20341;-95
2022/10/22 08:27:50;;;;;;;11.02;2.40;;;;;;;26.23;90.46;97298.91;6244397;22;20000;-93
2022/10/22 08:30:16;;;;;;;11.63;2.10;;;;;;;24.42;94.51;97309.28;6245798;22;20433;-94
2022/10/22 08:32:41;;;;;;;12.13;1.60;;;;;;;24.50;93.07;97303.28;6245773;22;20023;-93
2022/10/22 08:35:07;;;;;;;13.23;2.10;;;;;;;24.69;94.09;97306.00;6272602;22;20011;-95
2022/10/22 08:37:33;;;;;;;11.93;2.08;;;;;;;24.22;96.09;97308.41;6271597;22;20007;-94
2022/10/22 08:39:58;;;;;;;10.63;1.73;;;;;;;24.61;96.53;97315.69;6244842;22;20012;-94
2022/10/22 08:42:23;;;;;;;12.05;1.70;;;;;;;25.30;91.57;97316.53;6243997;22;20038;-95
2022/10/22 08:45:13;;;;;;;13.20;1.90;;;;;;;24.29;95.77;97322.03;6245033;22;20043;-94
2022/10/22 08:48:09;;;;;;;15.07;1.85;;;;;;;24.08;96.90;97314.94;6272837;22;20011;-95
2022/10/22 08:51:00;;;;;;;12.68;2.33;;;;;;;23.99;98.89;97313.06;6244920;22;20015;-94
2022/10/22 08:53:57;;;;;;;13.48;1.95;;;;;;;24.47;95.10;97303.56;6240320;22;20035;-93
2022/10/22 08:56:23;;;;;;;14.52;2.13;;;;;;;24.74;97.58;97305.59;6272251;22;20014;-94
2022/10/22 08:58:56;;;;;;;11.63;1.65;;;;;;;24.90;95.24;97309.53;6273102;22;20031;-95
2022/10/22 09:01:37;;;;;;;11.68;2.13;;;;;;;24.16;98.72;97307.13;6245959;22;20011;-95
2022/10/22 09:04:27;;;;;;;15.32;2.15;;;;;;;26.09;92.38;97315.41;6272883;22;20106;-95
2022/10/22 09:06:56;;;;;;;13.57;2.28;;;;;;;26.35;92.99;97328.09;6245905;22;20102;-93
2022/10/22 09:09:33;;;;;;;16.85;2.20;;;;;;;27.11;88.98;97331.41;6245708;22;20213;-94
2022/10/22 09:12:02;;;;;;;13.68;2.08;;;;;;;27.39;89.18;97340.19;6245232;22;20035;-95
2022/10/22 09:14:28;;;;;;;14.05;2.13;;;;;;;25.75;90.09;97337.28;6246066;22;20015;-94
2022/10/22 09:16:54;;;;;;;13.25;2.40;;;;;;;25.65;94.43;97352.47;6245635;22;20030;-92
2022/10/22 09:19:34;;;;;;;14.75;1.85;;;;;;;24.81;100.00;97352.03;6245194;22;20008;-94
2022/10/22 09:22:34;;;;;;;14.00;2.22;;;;;;;25.63;97.19;97333.94;6244724;22;20010;-93
2022/10/22 09:25:15;;;;;;;13.68;2.15;;;;;;;26.07;93.68;97330.75;6245617;22;20015;-94
2022/10/22 09:27:51;;;;;;;12.10;2.30;;;;;;;26.34;92.21;97347.78;6246227;22;20003;-94
2022/10/22 09:30:38;;;;;;;11.85;2.20;;;;;;;26.98;92.03;97329.13;6244618;22;20003;-95
2022/10/22 09:33:06;;;;;;;16.00;1.92;;;;;;;26.49;91.46;97351.63;6245533;22;20498;-94
2022/10/22 09:36:02;;;;;;;12.20;2.40;;;;;;;28.30;85.07;97352.34;6243910;22;20000;-94
2022/10/22 09:38:52;;;;;;;13.75;2.05;;;;;;;28.65;80.78;97363.09;6244720;22;20818;-94
2022/10/22 09:41:34;;;;;;;14.38;2.35;;;;;;;28.07;84.53;97339.53;6245681;22;20433;-95
2022/10/22 09:44:09;;;;;;;12.68;1.70;;;;;;;28.12;82.99;97347.06;6245567;22;20000;-94
2022/10/22 09:46:44;;;;;;;10.20;2.00;;;;;;;27.84;81.98;97344.53;6273452;22;20006;-94
2022/10/22 09:49:17;;;;;;;11.50;2.20;;;;;;;29.19;82.28;97339.38;6246888;22;20018;-93
2022/10/22 09:52:00;;;;;;;13.68;2.10;;;;;;;27.06;87.62;97338.06;6248797;22;20004;-95
2022/10/22 09:54:34;;;;;;;;;;;;;;;27.61;86.27;97352.25;6274394;22;20007;-93
2022/10/22 09:57:27;;;;;;;12.13;2.17;;;;;;;28.20;82.31;97363.19;6247387;22;19918;-94
2022/10/22 09:59:56;;;;;;;9.48;1.70;;;;;;;27.64;85.69;97356.44;6274356;22;20004;-94
2022/10/22 10:02:28;;;;;;;12.15;1.70;;;;;;;28.91;84.72;97371.88;6248831;22;20030;-95
2022/10/22 10:04:56;;;;;;;13.20;2.22;;;;;;;29.48;78.11;97382.88;6249068;22;20003;-95
2022/10/22 10:07:29;;;;;;;15.20;2.30;;;;;;;29.55;82.65;97400.84;6249288;22;20114;-95
2022/10/22 10:09:54;;;;;;;10.30;1.83;;;;;;;29.41;80.32;97398.81;6250559;22;20050;-95
2022/10/22 10:12:45;;;;;;;12.80;2.10;;;;;;;27.77;85.72;97399.75;6276256;22;20089;-94
2022/10/22 10:15:23;;;;;;;13.50;1.73;;;;;;;28.26;86.44;97407.28;6275335;22;19992;-95
2022/10/22 10:18:25;;;;;;;11.85;1.92;;;;;;;27.91;83.89;97409.88;6277438;22;20072;-96
2022/10/22 10:21:05;;;;;;;13.30;1.90;;;;;;;29.15;82.33;97397.06;6250146;22;19999;-93
2022/10/22 10:23:46;;;;;;;14.75;2.28;;;;;;;26.99;87.21;97409.22;6246878;22;20003;-94
2022/10/22 10:26:25;;;;;;;12.70;2.40;;;;;;;28.54;84.64;97415.97;6244540;22;20368;-93
2022/10/22 10:29:05;;;;;;;11.02;1.80;;;;;;;27.92;85.93;97430.34;6242304;22;20015;-93
2022/10/22 10:32:03;;;;;;;11.40;1.67;;;;;;;27.94;85.07;97422.97;6243887;22;20008;-92
2022/10/22 10:34:47;;;;;;;9.90;1.80;;;;;;;27.24;85.83;97418.34;6244311;22;20065;-93
2022/10/22 10:37:16;;;;;;;;;;;;;;;26.92;88.33;97426.88;6246688;22;20007;-96
2022/10/22 10:40:01;;;;;;;9.15;1.48;;;;;;;27.07;88.77;97421.84;6279385;22;19903;-95
2022/10/22 10:42:35;;;;;;;12.30;1.80;;;;;;;28.82;84.47;97421.13;6250121;22;20101;-96
2022/10/22 10:45:32;;;;;;;10.80;1.73;;;;;;;28.16;85.41;97436.06;6249809;22;20338;-95
2022/10/22 10:48:14;;;;;;;9.50;1.75;;;;;;;27.69;88.05;97432.66;6251101;22;20004;-95
2022/10/22 10:50:55;;;;;;;12.30;1.90;;;;;;;27.57;88.36;97441.91;6277209;22;20441;-95
2022/10/22 10:53:42;;;;;;;10.57;1.88;;;;;;;28.84;86.43;97458.53;6250147;22;20015;-95
2022/10/22 10:56:50;;;;;;;11.25;1.63;;;;;;;27.44;84.79;97474.44;6249533;22;20036;-95
2022/10/22 10:59:18;;;;;;;13.10;2.00;;;;;;;27.86;86.14;97462.25;6230947;22;20011;-94
2022/10/22 11:01:46;;;;;;;11.52;1.90;;;;;;;28.21;85.89;97463.22;6275076;22;20056;-95
2022/10/22 11:04:44;;;;;;;10.45;1.48;;;;;;;26.90;88.51;97468.97;6248730;22;19996;-95
2022/10/22 11:07:18;;;;;;;11.05;1.70;;;;;;;27.72;87.48;97474.38;6242565;23;20028;-93
2022/10/22 11:09:55;;;;;;;10.13;1.58;;;;;;;27.81;87.40;97480.63;6242807;23;20019;-94
2022/10/22 11:12:33;;;;;;;8.90;1.80;;;;;;;26.74;89.25;97483.00;6243923;22;20159;-95
2022/10/22 11:15:14;;;;;;;14.68;1.83;;;;;;;25.47;99.60;97480.47;6240535;23;20083;-95
2022/10/22 11:17:47;;;;;;;11.90;1.55;;;;;;;25.53;94.88;97479.94;6241794;23;20011;-93
2022/10/22 11:20:19;;;;;;;8.25;1.40;;;;;;;25.73;98.88;97504.78;6243482;23;20011;-95
2022/10/22 11:22:59;;;;;;;7.57;1.30;;;;;;;26.14;94.28;97478.78;6242995;23;20103;-94
2022/10/22 11:25:29;;;;;;;9.38;1.60;;;;;;;25.48;99.73;97455.47;6243905;23;20016;-94
2022/10/22 11:28:07;;;;;;;10.77;1.45;;;;;;;26.49;98.12;97479.97;6242255;23;20004;-95
2022/10/22 11:30:35;;;;;;;9.65;2.05;;;;;;;26.46;99.41;97474.91;6242722;23;20320;-94
2022/10/22 11:33:06;;;;;;;9.90;1.42;;;;;;;24.72;100.00;97472.84;6243414;23;20066;-95
2022/10/22 11:35:39;;;;;;;10.38;1.88;;;;;;;26.79;97.90;97474.53;6244200;22;20078;-96
2022/10/22 11:38:05;;;;;;;;;;;;;;;26.55;98.29;97489.22;6243750;23;20011;-95
2022/10/22 11:40:36;;;;;;;10.73;1.65;;;;;;;27.00;97.60;97480.47;6242674;23;19907;-95
2022/10/22 11:43:24;;;;;;;12.82;1.90;;;;;;;26.84;94.92;97483.78;6240768;23;20110;-96